createdAt,value
2019-02-19T00:01:24.474Z,5.47
2019-02-19T00:03:54.106Z,5.38
2019-02-19T00:06:23.898Z,5.29
2019-02-19T00:08:53.691Z,5.22
2019-02-19T00:11:23.325Z,5.13
2019-02-19T00:13:53.195Z,5.00
2019-02-19T00:16:22.826Z,4.90
2019-02-19T00:18:52.567Z,4.80
2019-02-19T00:21:23.876Z,4.71
2019-02-19T00:23:53.619Z,4.61
2019-02-19T00:26:23.248Z,4.52
2019-02-19T00:28:52.973Z,4.49
2019-02-19T00:31:24.862Z,4.43
2019-02-19T00:33:54.653Z,4.38
2019-02-19T00:36:24.280Z,4.34
2019-02-19T00:38:53.914Z,4.31
2019-02-19T00:41:23.848Z,4.28
2019-02-19T00:43:53.866Z,4.20
2019-02-19T00:46:23.492Z,4.14
2019-02-19T00:48:53.183Z,4.07
2019-02-19T00:51:22.819Z,4.00
2019-02-19T00:53:52.434Z,3.96
2019-02-19T00:56:22.212Z,3.91
2019-02-19T00:58:52.006Z,3.86
2019-02-19T01:01:24.981Z,3.84
2019-02-19T01:03:59.906Z,3.82
2019-02-19T01:06:30.715Z,3.78
2019-02-19T01:09:00.351Z,3.72
2019-02-19T01:11:30.031Z,3.67
2019-02-19T01:13:59.665Z,3.64
2019-02-19T01:16:29.353Z,3.61
2019-02-19T01:18:59.021Z,3.58
2019-02-19T01:21:28.772Z,3.58
2019-02-19T01:23:58.393Z,3.56
2019-02-19T01:26:28.663Z,3.56
2019-02-19T01:28:59.869Z,3.56
2019-02-19T01:31:29.988Z,3.60
2019-02-19T01:34:00.119Z,3.62
2019-02-19T01:36:29.858Z,3.65
2019-02-19T01:38:59.496Z,3.67
2019-02-19T01:41:30.076Z,3.67
2019-02-19T01:44:00.100Z,3.69
2019-02-19T01:46:29.737Z,3.69
2019-02-19T01:49:00.083Z,3.65
2019-02-19T01:51:30.096Z,3.63
2019-02-19T01:54:00.110Z,3.64
2019-02-19T01:56:29.974Z,3.65
2019-02-19T01:58:59.596Z,3.63
2019-02-19T02:01:29.600Z,3.58
2019-02-19T02:03:59.552Z,3.55
2019-02-19T02:06:29.187Z,3.50
2019-02-19T02:09:00.082Z,3.48
2019-02-19T02:11:29.751Z,3.46
2019-02-19T02:13:59.381Z,3.44
2019-02-19T02:16:29.010Z,3.43
2019-02-19T02:18:58.829Z,3.37
2019-02-19T02:21:28.744Z,3.35
2019-02-19T02:23:58.358Z,3.33
2019-02-19T02:26:28.598Z,3.34
2019-02-19T02:28:58.803Z,3.34
2019-02-19T02:31:28.423Z,3.31
2019-02-19T02:33:58.113Z,3.30
2019-02-19T02:36:28.670Z,3.27
2019-02-19T02:38:58.548Z,3.23
2019-02-19T02:41:28.399Z,3.19
2019-02-19T02:43:58.419Z,3.17
2019-02-19T02:46:28.821Z,3.14
2019-02-19T02:48:58.534Z,3.12
2019-02-19T02:51:28.274Z,3.11
2019-02-19T02:53:58.767Z,3.07
2019-02-19T02:56:28.816Z,3.02
2019-02-19T02:58:58.556Z,2.99
2019-02-19T03:01:28.188Z,2.96
2019-02-19T03:03:57.873Z,2.94
2019-02-19T03:06:41.331Z,2.97
2019-02-19T03:09:11.114Z,2.96
2019-02-19T03:11:41.651Z,2.96
2019-02-19T03:14:11.279Z,2.94
2019-02-19T03:16:40.947Z,2.93
2019-02-19T03:19:10.577Z,2.94
2019-02-19T03:21:40.682Z,2.92
2019-02-19T03:24:10.362Z,2.88
2019-02-19T03:26:39.983Z,2.84
2019-02-19T03:29:09.613Z,2.77
2019-02-19T03:31:39.273Z,2.76
2019-02-19T03:34:08.900Z,2.74
2019-02-19T03:36:39.501Z,2.71
2019-02-19T03:39:10.385Z,2.66
2019-02-19T03:41:41.665Z,2.64
2019-02-19T03:44:11.672Z,2.63
2019-02-19T03:46:41.350Z,2.59
2019-02-19T03:49:11.152Z,2.58
2019-02-19T03:51:40.789Z,2.58
2019-02-19T03:54:10.610Z,2.60
2019-02-19T03:56:40.508Z,2.61
2019-02-19T03:59:10.213Z,2.62
2019-02-19T04:01:39.858Z,2.61
2019-02-19T04:04:11.203Z,2.60
2019-02-19T04:06:42.503Z,2.60
2019-02-19T04:09:12.268Z,2.60
2019-02-19T04:11:42.067Z,2.58
2019-02-19T04:14:11.798Z,2.53
2019-02-19T04:16:41.530Z,2.52
2019-02-19T04:19:12.956Z,2.49
2019-02-19T04:21:43.465Z,2.46
2019-02-19T04:24:13.367Z,2.44
2019-02-19T04:26:43.933Z,2.44
2019-02-19T04:29:15.131Z,2.42
2019-02-19T04:31:44.791Z,2.41
2019-02-19T04:34:14.436Z,2.41
2019-02-19T04:36:44.065Z,2.41
2019-02-19T04:39:14.098Z,2.39
2019-02-19T04:41:44.480Z,2.39
2019-02-19T04:44:14.219Z,2.39
2019-02-19T04:46:43.893Z,2.40
2019-02-19T04:49:14.506Z,2.42
2019-02-19T04:51:44.803Z,2.39
2019-02-19T04:54:14.499Z,2.37
2019-02-19T04:56:44.258Z,2.35
2019-02-19T04:59:15.550Z,2.35
2019-02-19T05:01:45.207Z,2.32
2019-02-19T05:04:14.835Z,2.27
2019-02-19T05:06:44.583Z,2.24
2019-02-19T05:09:15.143Z,2.21
2019-02-19T05:11:44.936Z,2.17
2019-02-19T05:14:14.560Z,2.16
2019-02-19T05:16:44.243Z,2.13
2019-02-19T05:19:13.977Z,2.10
2019-02-19T05:21:43.995Z,2.07
2019-02-19T05:24:13.668Z,2.05
2019-02-19T05:26:44.287Z,2.03
2019-02-19T05:29:15.006Z,2.01
2019-02-19T05:31:44.699Z,2.00
2019-02-19T05:34:14.324Z,1.98
2019-02-19T05:36:44.062Z,1.98
2019-02-19T05:39:13.852Z,1.99
2019-02-19T05:41:43.852Z,2.02
2019-02-19T05:44:13.486Z,2.03
2019-02-19T05:46:49.715Z,2.07
2019-02-19T05:49:14.949Z,2.11
2019-02-19T05:51:44.587Z,2.14
2019-02-19T05:54:14.271Z,2.19
2019-02-19T05:56:44.110Z,2.21
2019-02-19T05:59:15.629Z,2.22
2019-02-19T06:01:46.428Z,2.23
2019-02-19T06:04:16.178Z,2.24
2019-02-19T06:06:45.798Z,2.25
2019-02-19T06:09:16.164Z,2.26
2019-02-19T06:11:45.786Z,2.26
2019-02-19T06:14:15.419Z,2.28
2019-02-19T06:16:45.356Z,2.29
2019-02-19T06:19:16.114Z,2.31
2019-02-19T06:21:47.126Z,2.31
2019-02-19T06:24:16.951Z,2.32
2019-02-19T06:26:46.580Z,2.34
2019-02-19T06:29:17.386Z,2.37
2019-02-19T06:31:48.507Z,2.41
2019-02-19T06:34:18.160Z,2.51
2019-02-19T06:36:47.893Z,2.58
2019-02-19T06:39:17.627Z,2.61
2019-02-19T06:41:47.338Z,2.64
2019-02-19T06:44:17.008Z,2.68
2019-02-19T06:46:47.636Z,2.74
2019-02-19T06:49:17.276Z,2.78
2019-02-19T06:51:47.381Z,2.89
2019-02-19T06:54:17.562Z,3.03
2019-02-19T06:56:47.201Z,3.14
2019-02-19T06:59:16.839Z,3.23
2019-02-19T07:02:03.180Z,3.35
2019-02-19T07:04:34.445Z,3.47
2019-02-19T07:07:04.200Z,3.58
2019-02-19T07:09:34.070Z,3.70
2019-02-19T07:12:03.771Z,3.84
2019-02-19T07:14:33.403Z,3.96
2019-02-19T07:17:03.076Z,4.08
2019-02-19T07:19:32.976Z,4.23
2019-02-19T07:22:02.605Z,4.30
2019-02-19T07:24:33.040Z,4.37
2019-02-19T07:27:04.434Z,4.45
2019-02-19T07:29:34.335Z,4.52
2019-02-19T07:32:04.035Z,4.65
2019-02-19T07:34:33.739Z,4.80
2019-02-19T07:37:03.382Z,4.99
2019-02-19T07:39:33.041Z,5.25
2019-02-19T07:42:03.026Z,5.54
2019-02-19T07:44:33.447Z,5.85
2019-02-19T07:47:03.288Z,6.15
2019-02-19T07:49:32.917Z,6.50
2019-02-19T07:52:02.549Z,6.87
2019-02-19T07:54:32.248Z,7.24
2019-02-19T07:57:01.874Z,7.54
2019-02-19T07:59:31.780Z,7.76
2019-02-19T08:02:01.601Z,7.99
2019-02-19T08:04:31.228Z,8.11
2019-02-19T08:07:00.856Z,8.21
2019-02-19T08:09:30.539Z,8.28
2019-02-19T08:12:00.711Z,8.38
2019-02-19T08:14:30.344Z,8.50
2019-02-19T08:17:00.603Z,8.55
2019-02-19T08:19:31.612Z,8.61
2019-02-19T08:22:01.994Z,8.66
2019-02-19T08:24:31.652Z,8.68
2019-02-19T08:27:01.650Z,8.68
2019-02-19T08:29:31.343Z,8.66
2019-02-19T08:32:01.621Z,8.63
2019-02-19T08:34:31.250Z,8.61
2019-02-19T08:37:01.052Z,8.58
2019-02-19T08:39:30.722Z,8.59
2019-02-19T08:42:00.360Z,8.58
2019-02-19T08:44:32.723Z,8.60
2019-02-19T08:47:02.677Z,8.62
2019-02-19T08:49:32.381Z,8.64
2019-02-19T08:52:02.133Z,8.66
2019-02-19T08:54:31.789Z,8.68
2019-02-19T08:57:02.931Z,8.75
2019-02-19T08:59:32.582Z,8.81
2019-02-19T09:02:02.267Z,8.85
2019-02-19T09:04:32.165Z,8.91
2019-02-19T09:07:01.791Z,8.99
2019-02-19T09:09:32.042Z,9.10
2019-02-19T09:12:01.747Z,9.20
2019-02-19T09:14:31.511Z,9.29
2019-02-19T09:17:01.176Z,9.33
2019-02-19T09:19:30.810Z,9.35
2019-02-19T09:22:00.431Z,9.34
2019-02-19T09:24:30.806Z,9.35
2019-02-19T09:27:00.434Z,9.40
2019-02-19T09:29:31.019Z,9.39
2019-02-19T09:32:00.704Z,9.43
2019-02-19T09:34:30.367Z,9.49
2019-02-19T09:37:00.174Z,9.61
2019-02-19T09:39:29.900Z,9.73
2019-02-19T09:41:59.530Z,9.82
2019-02-19T09:44:29.259Z,9.88
2019-02-19T09:46:59.001Z,9.91
2019-02-19T09:49:28.798Z,9.96
2019-02-19T09:51:58.553Z,10.04
2019-02-19T09:54:28.393Z,10.17
2019-02-19T09:56:59.800Z,10.25
2019-02-19T09:59:30.339Z,10.35
2019-02-19T10:02:00.047Z,10.46
2019-02-19T10:04:30.145Z,10.53
2019-02-19T10:06:59.896Z,10.59
2019-02-19T10:09:29.803Z,10.64
2019-02-19T10:11:59.452Z,10.65
2019-02-19T10:14:29.152Z,10.70
2019-02-19T10:17:01.283Z,10.70
2019-02-19T10:19:30.919Z,10.73
2019-02-19T10:22:00.572Z,10.75
2019-02-19T10:24:30.243Z,10.79
2019-02-19T10:26:59.891Z,10.88
2019-02-19T10:29:30.601Z,10.93
2019-02-19T10:32:00.306Z,10.90
2019-02-19T10:34:29.947Z,10.93
2019-02-19T10:36:59.584Z,10.93
2019-02-19T10:39:29.253Z,10.95
2019-02-19T10:41:58.881Z,11.04
2019-02-19T10:44:28.517Z,11.08
2019-02-19T10:46:58.183Z,11.15
2019-02-19T10:49:28.000Z,11.22
2019-02-19T10:51:58.202Z,11.30
2019-02-19T10:54:31.495Z,11.41
2019-02-19T10:57:01.902Z,11.45
2019-02-19T10:59:31.706Z,11.43
2019-02-19T11:02:01.389Z,11.41
2019-02-19T11:04:31.142Z,11.44
2019-02-19T11:07:00.750Z,11.51
2019-02-19T11:09:32.128Z,11.53
2019-02-19T11:12:02.334Z,11.62
2019-02-19T11:14:31.973Z,11.70
2019-02-19T11:17:02.075Z,11.75
2019-02-19T11:19:32.529Z,11.76
2019-02-19T11:22:02.673Z,11.76
2019-02-19T11:24:32.667Z,11.80
2019-02-19T11:27:02.610Z,11.76
2019-02-19T11:29:32.647Z,11.68
2019-02-19T11:32:02.337Z,11.77
2019-02-19T11:34:31.969Z,11.64
2019-02-19T11:37:01.617Z,11.49
2019-02-19T11:39:34.241Z,11.47
2019-02-19T11:42:05.045Z,11.63
2019-02-19T11:44:34.686Z,11.77
2019-02-19T11:47:04.352Z,11.96
2019-02-19T11:49:34.247Z,11.99
2019-02-19T11:52:03.998Z,11.91
2019-02-19T11:54:34.692Z,11.80
2019-02-19T11:57:04.315Z,11.63
2019-02-19T11:59:34.632Z,11.49
2019-02-19T12:02:05.952Z,11.39
2019-02-19T12:04:35.587Z,11.33
2019-02-19T12:07:05.356Z,11.33
2019-02-19T12:09:35.057Z,11.40
2019-02-19T12:12:04.705Z,11.43
2019-02-19T12:14:34.350Z,11.42
2019-02-19T12:17:04.503Z,11.30
2019-02-19T12:19:34.122Z,11.03
2019-02-19T12:22:03.760Z,10.79
2019-02-19T12:24:33.605Z,10.54
2019-02-19T12:27:03.234Z,10.24
2019-02-19T12:29:33.441Z,10.01
2019-02-19T12:32:03.215Z,9.82
2019-02-19T12:34:32.851Z,9.69
2019-02-19T12:37:02.494Z,9.65
2019-02-19T12:39:32.846Z,9.60
2019-02-19T12:42:02.735Z,9.45
2019-02-19T12:44:32.357Z,9.23
2019-02-19T12:47:02.019Z,9.04
2019-02-19T12:49:32.516Z,8.95
2019-02-19T12:52:02.903Z,8.85
2019-02-19T12:54:32.601Z,8.79
2019-02-19T12:57:02.239Z,8.69
2019-02-19T12:59:32.041Z,8.62
2019-02-19T13:02:02.607Z,8.44
2019-02-19T13:04:32.393Z,8.27
2019-02-19T13:07:02.080Z,8.17
2019-02-19T13:09:31.731Z,8.05
2019-02-19T13:12:01.691Z,8.00
2019-02-19T13:14:31.364Z,7.95
2019-02-19T13:17:01.537Z,7.92
2019-02-19T13:19:32.119Z,7.94
2019-02-19T13:22:01.746Z,7.88
2019-02-19T13:24:33.980Z,7.83
2019-02-19T13:27:03.638Z,7.83
2019-02-19T13:29:36.230Z,7.84
2019-02-19T13:32:06.195Z,7.81
2019-02-19T13:34:36.208Z,7.74
2019-02-19T13:37:06.315Z,7.70
2019-02-19T13:39:37.561Z,7.72
2019-02-19T13:42:07.310Z,7.70
2019-02-19T13:44:36.939Z,7.70
2019-02-19T13:47:06.675Z,7.68
2019-02-19T13:49:36.333Z,7.66
2019-02-19T13:52:07.678Z,7.67
2019-02-19T13:54:37.554Z,7.66
2019-02-19T13:57:09.560Z,7.60
2019-02-19T13:59:39.343Z,7.59
2019-02-19T14:02:09.117Z,7.64
2019-02-19T14:04:39.206Z,7.64
2019-02-19T14:07:08.844Z,7.62
2019-02-19T14:09:38.511Z,7.60
2019-02-19T14:12:08.919Z,7.57
2019-02-19T14:14:40.188Z,7.53
2019-02-19T14:17:10.045Z,7.53
2019-02-19T14:19:43.854Z,7.53
2019-02-19T14:22:24.431Z,7.52
2019-02-19T14:25:11.585Z,7.59
2019-02-19T14:27:59.208Z,7.61
2019-02-19T14:30:33.156Z,7.56
2019-02-19T14:33:13.344Z,7.50
2019-02-19T14:36:02.854Z,7.50
2019-02-19T14:38:34.264Z,7.50
2019-02-19T14:41:11.207Z,7.48
2019-02-19T14:43:48.503Z,7.48
2019-02-19T14:46:22.509Z,7.47
2019-02-19T14:48:56.928Z,7.46
2019-02-19T14:51:44.776Z,7.43
2019-02-19T14:54:19.302Z,7.40
2019-02-19T14:56:56.269Z,7.41
2019-02-19T14:59:31.691Z,7.43
2019-02-19T15:02:11.750Z,7.45
2019-02-19T15:04:58.803Z,7.42
2019-02-19T15:07:35.797Z,7.42
2019-02-19T15:10:16.244Z,7.44
2019-02-19T15:12:59.468Z,7.42
2019-02-19T15:15:39.836Z,7.40
2019-02-19T15:18:13.651Z,7.39
2019-02-19T15:20:47.771Z,7.41
2019-02-19T15:23:35.097Z,7.42
2019-02-19T15:26:18.890Z,7.42
2019-02-19T15:29:05.783Z,7.46
2019-02-19T15:31:46.723Z,7.50
2019-02-19T15:34:19.569Z,7.52
2019-02-19T15:37:02.320Z,7.61
2019-02-19T15:39:36.242Z,7.65
2019-02-19T15:42:13.468Z,7.66
2019-02-19T15:44:50.488Z,7.63
2019-02-19T15:47:24.909Z,7.60
2019-02-19T15:50:12.327Z,7.59
2019-02-19T15:52:52.280Z,7.59
2019-02-19T15:55:35.143Z,7.59
2019-02-19T15:58:12.407Z,7.61
2019-02-19T16:00:46.669Z,7.63
2019-02-19T16:03:24.215Z,7.67
2019-02-19T16:05:58.147Z,7.70
2019-02-19T16:08:41.364Z,7.73
2019-02-19T16:11:12.627Z,7.74
2019-02-19T16:13:43.908Z,7.76
2019-02-19T16:16:18.060Z,7.78
2019-02-19T16:18:49.477Z,7.78
2019-02-19T16:21:35.966Z,7.77
2019-02-19T16:24:07.252Z,7.80
2019-02-19T16:26:50.486Z,7.80
2019-02-19T16:29:24.417Z,7.79
2019-02-19T16:32:07.826Z,7.81
2019-02-19T16:34:39.210Z,7.81
2019-02-19T16:37:17.293Z,7.83
2019-02-19T16:39:51.825Z,7.84
2019-02-19T16:42:39.473Z,7.87
2019-02-19T16:45:11.976Z,7.87
2019-02-19T16:47:44.132Z,7.89
2019-02-19T16:50:24.303Z,7.88
2019-02-19T16:52:58.679Z,7.91
2019-02-19T16:55:41.820Z,7.93
2019-02-19T16:58:18.813Z,7.96
2019-02-19T17:01:04.919Z,7.97
2019-02-19T17:03:38.840Z,7.95
2019-02-19T17:06:16.218Z,7.98
2019-02-19T17:08:47.879Z,8.01
2019-02-19T17:11:22.299Z,8.07
2019-02-19T17:14:10.347Z,8.09
2019-02-19T17:16:44.389Z,8.09
2019-02-19T17:19:34.078Z,8.07
2019-02-19T17:22:23.808Z,8.06
2019-02-19T17:24:55.272Z,8.01
2019-02-19T17:27:41.937Z,7.96
2019-02-19T17:30:31.550Z,7.95
2019-02-19T17:33:02.894Z,7.91
2019-02-19T17:35:34.191Z,7.88
2019-02-19T17:38:14.507Z,7.84
2019-02-19T17:40:41.199Z,7.76
2019-02-19T17:43:12.466Z,7.67
2019-02-19T17:45:52.810Z,7.59
2019-02-19T17:48:26.796Z,7.55
2019-02-19T17:51:01.239Z,7.50
2019-02-19T17:53:35.291Z,7.51
2019-02-19T17:56:21.889Z,7.53
2019-02-19T17:58:53.160Z,7.52
2019-02-19T18:01:30.205Z,7.52
2019-02-19T18:04:03.938Z,7.53
2019-02-19T18:06:44.926Z,7.54
2019-02-19T18:09:17.199Z,7.58
2019-02-19T18:11:48.504Z,7.62
2019-02-19T18:14:19.925Z,7.64
2019-02-19T18:16:51.197Z,7.68
2019-02-19T18:19:21.934Z,7.70
2019-02-19T18:21:51.610Z,7.63
2019-02-19T18:24:21.835Z,7.60
2019-02-19T18:26:51.468Z,7.61
2019-02-19T18:29:21.138Z,7.56
2019-02-19T18:31:50.769Z,7.43
2019-02-19T18:34:20.674Z,7.26
2019-02-19T18:36:50.461Z,7.13
2019-02-19T18:39:20.094Z,6.97
2019-02-19T18:41:49.727Z,6.92
2019-02-19T18:44:19.675Z,6.86
2019-02-19T18:46:49.881Z,6.81
2019-02-19T18:49:21.969Z,6.78
2019-02-19T18:51:51.702Z,6.77
2019-02-19T18:54:22.454Z,6.75
2019-02-19T18:56:52.078Z,6.75
2019-02-19T18:59:22.087Z,6.76
2019-02-19T19:01:52.490Z,6.76
2019-02-19T19:04:22.113Z,6.77
2019-02-19T19:06:51.790Z,6.77
2019-02-19T19:09:21.597Z,6.72
2019-02-19T19:11:51.214Z,6.66
2019-02-19T19:14:20.909Z,6.62
2019-02-19T19:16:50.712Z,6.64
2019-02-19T19:19:20.506Z,6.67
2019-02-19T19:21:50.293Z,6.71
2019-02-19T19:24:19.943Z,6.74
2019-02-19T19:26:49.830Z,6.74
2019-02-19T19:29:19.568Z,6.73
2019-02-19T19:31:49.954Z,6.74
2019-02-19T19:34:19.723Z,6.77
2019-02-19T19:36:49.659Z,6.81
2019-02-19T19:39:20.297Z,6.84
2019-02-19T19:41:49.707Z,6.83
2019-02-19T19:44:19.413Z,6.90
2019-02-19T19:46:49.203Z,6.97
2019-02-19T19:49:18.843Z,6.97
2019-02-19T19:51:48.531Z,6.97
2019-02-19T19:54:18.528Z,6.99
2019-02-19T19:56:48.252Z,7.01
2019-02-19T19:59:17.963Z,7.00
2019-02-19T20:01:47.681Z,7.01
2019-02-19T20:04:18.704Z,7.00
2019-02-19T20:06:48.424Z,7.02
2019-02-19T20:09:18.339Z,7.02
2019-02-19T20:11:47.954Z,7.03
2019-02-19T20:14:17.626Z,7.03
2019-02-19T20:16:47.240Z,7.03
2019-02-19T20:19:16.885Z,7.01
2019-02-19T20:21:46.558Z,7.02
2019-02-19T20:24:16.175Z,7.00
2019-02-19T20:26:46.179Z,6.97
2019-02-19T20:29:15.968Z,6.95
2019-02-19T20:31:48.361Z,6.94
2019-02-19T20:34:19.057Z,6.93
2019-02-19T20:36:48.803Z,6.91
2019-02-19T20:39:18.417Z,6.85
2019-02-19T20:41:48.107Z,6.85
2019-02-19T20:44:17.928Z,6.86
2019-02-19T20:46:47.557Z,6.83
2019-02-19T20:49:18.716Z,6.82
2019-02-19T20:51:48.504Z,6.84
2019-02-19T20:54:18.241Z,6.85
2019-02-19T20:56:47.870Z,6.85
2019-02-19T20:59:17.534Z,6.87
2019-02-19T21:01:47.335Z,6.86
2019-02-19T21:04:18.636Z,6.87
2019-02-19T21:06:48.495Z,6.92
2019-02-19T21:09:18.890Z,6.90
2019-02-19T21:11:48.530Z,6.89
2019-02-19T21:14:18.688Z,6.89
2019-02-19T21:16:48.292Z,6.87
2019-02-19T21:19:19.623Z,6.88
2019-02-19T21:21:49.444Z,6.90
2019-02-19T21:24:19.058Z,6.90
2019-02-19T21:26:48.694Z,6.92
2019-02-19T21:29:18.877Z,6.92
2019-02-19T21:31:48.853Z,6.95
2019-02-19T21:34:18.490Z,6.95
2019-02-19T21:36:48.325Z,6.94
2019-02-19T21:39:17.975Z,6.94
2019-02-19T21:41:47.764Z,6.97
2019-02-19T21:44:18.181Z,6.97
2019-02-19T21:46:47.965Z,6.99
2019-02-19T21:49:17.588Z,6.99
2019-02-19T21:51:53.942Z,7.00
2019-02-19T21:54:18.689Z,6.99
2019-02-19T21:56:55.702Z,7.02
2019-02-19T21:59:25.400Z,7.06
2019-02-19T22:01:55.197Z,7.05
2019-02-19T22:04:25.163Z,7.03
2019-02-19T22:06:54.832Z,7.06
2019-02-19T22:09:24.995Z,7.06
2019-02-19T22:11:54.755Z,7.07
2019-02-19T22:14:24.460Z,7.09
2019-02-19T22:16:55.568Z,7.08
2019-02-19T22:19:25.318Z,7.08
2019-02-19T22:22:03.149Z,7.07
2019-02-19T22:24:37.278Z,7.05
2019-02-19T22:27:07.067Z,7.05
2019-02-19T22:29:38.957Z,7.04
2019-02-19T22:32:11.614Z,7.01
2019-02-19T22:34:41.323Z,6.99
2019-02-19T22:37:11.104Z,6.95
2019-02-19T22:39:40.965Z,6.94
2019-02-19T22:42:11.666Z,6.93
2019-02-19T22:44:41.397Z,6.92
2019-02-19T22:47:11.136Z,6.91
2019-02-19T22:49:40.819Z,6.94
2019-02-19T22:52:12.837Z,6.94
2019-02-19T22:54:46.158Z,6.90
2019-02-19T22:57:15.838Z,6.88
2019-02-19T22:59:45.460Z,6.87
2019-02-19T23:02:15.927Z,6.88
2019-02-19T23:04:45.838Z,6.87
2019-02-19T23:07:15.975Z,6.87
2019-02-19T23:09:45.600Z,6.85
2019-02-19T23:12:16.507Z,6.84
2019-02-19T23:14:46.132Z,6.81
2019-02-19T23:17:15.760Z,6.79
2019-02-19T23:19:45.708Z,6.79
2019-02-19T23:22:21.454Z,6.78
2019-02-19T23:24:46.768Z,6.77
2019-02-19T23:27:16.561Z,6.76
2019-02-19T23:29:46.185Z,6.75
2019-02-19T23:32:16.394Z,6.76
2019-02-19T23:34:48.478Z,6.74
2019-02-19T23:37:18.179Z,6.73
2019-02-19T23:39:48.680Z,6.73
2019-02-19T23:42:18.369Z,6.73
2019-02-19T23:44:48.113Z,6.72
2019-02-19T23:47:17.741Z,6.71
2019-02-19T23:49:48.918Z,6.69
2019-02-19T23:52:18.829Z,6.68
2019-02-19T23:54:48.571Z,6.68
2019-02-19T23:57:18.247Z,6.65
2019-02-19T23:59:48.002Z,6.62
